sensor_id;sensor_type;location;lat;lon;timestamp;P1;durP1;ratioP1;P2;durP2;ratioP2
2320;SDS011;15376;48.540;9.268;2023-11-19T00:00:49;3.10;;;2.90;;
2320;SDS011;15376;48.540;9.268;2023-11-19T00:03:16;4.93;;;4.43;;
2320;SDS011;15376;48.540;9.268;2023-11-19T00:05:41;7.77;;;5.40;;
2320;SDS011;15376;48.540;9.268;2023-11-19T00:08:06;6.03;;;5.43;;
2320;SDS011;15376;48.540;9.268;2023-11-19T00:10:33;7.13;;;5.57;;
2320;SDS011;15376;48.540;9.268;2023-11-19T00:12:59;6.00;;;5.50;;
2320;SDS011;15376;48.540;9.268;2023-11-19T00:15:24;5.43;;;4.93;;
2320;SDS011;15376;48.540;9.268;2023-11-19T00:17:50;5.60;;;5.10;;
2320;SDS011;15376;48.540;9.268;2023-11-19T00:20:16;5.70;;;5.30;;
2320;SDS011;15376;48.540;9.268;2023-11-19T00:22:43;6.40;;;5.30;;
2320;SDS011;15376;48.540;9.268;2023-11-19T00:25:09;5.90;;;5.30;;
2320;SDS011;15376;48.540;9.268;2023-11-19T00:27:35;6.90;;;6.20;;
2320;SDS011;15376;48.540;9.268;2023-11-19T00:30:01;6.37;;;5.70;;
2320;SDS011;15376;48.540;9.268;2023-11-19T00:32:26;8.17;;;7.13;;
2320;SDS011;15376;48.540;9.268;2023-11-19T00:34:52;8.17;;;6.43;;
2320;SDS011;15376;48.540;9.268;2023-11-19T00:37:17;7.40;;;6.07;;
2320;SDS011;15376;48.540;9.268;2023-11-19T00:39:43;6.57;;;5.97;;
2320;SDS011;15376;48.540;9.268;2023-11-19T00:42:08;5.13;;;4.63;;
2320;SDS011;15376;48.540;9.268;2023-11-19T00:44:35;5.37;;;4.90;;
2320;SDS011;15376;48.540;9.268;2023-11-19T00:47:00;5.20;;;4.80;;
2320;SDS011;15376;48.540;9.268;2023-11-19T00:49:26;4.57;;;3.97;;
2320;SDS011;15376;48.540;9.268;2023-11-19T00:51:51;4.47;;;4.07;;
2320;SDS011;15376;48.540;9.268;2023-11-19T00:54:16;4.57;;;4.10;;
2320;SDS011;15376;48.540;9.268;2023-11-19T00:56:42;4.13;;;3.70;;
2320;SDS011;15376;48.540;9.268;2023-11-19T00:59:07;4.87;;;4.47;;
2320;SDS011;15376;48.540;9.268;2023-11-19T01:01:33;5.30;;;4.10;;
2320;SDS011;15376;48.540;9.268;2023-11-19T01:03:59;5.73;;;4.70;;
2320;SDS011;15376;48.540;9.268;2023-11-19T01:06:30;4.83;;;4.40;;
2320;SDS011;15376;48.540;9.268;2023-11-19T01:08:56;3.77;;;3.27;;
2320;SDS011;15376;48.540;9.268;2023-11-19T01:11:22;3.87;;;3.57;;
2320;SDS011;15376;48.540;9.268;2023-11-19T01:13:48;4.90;;;4.50;;
2320;SDS011;15376;48.540;9.268;2023-11-19T01:16:14;5.63;;;3.70;;
2320;SDS011;15376;48.540;9.268;2023-11-19T01:18:40;4.50;;;3.23;;
2320;SDS011;15376;48.540;9.268;2023-11-19T01:21:06;3.97;;;3.37;;
2320;SDS011;15376;48.540;9.268;2023-11-19T01:23:31;4.23;;;3.83;;
2320;SDS011;15376;48.540;9.268;2023-11-19T01:25:57;4.00;;;3.60;;
2320;SDS011;15376;48.540;9.268;2023-11-19T01:28:23;3.63;;;3.33;;
2320;SDS011;15376;48.540;9.268;2023-11-19T01:30:50;3.37;;;3.07;;
2320;SDS011;15376;48.540;9.268;2023-11-19T01:33:15;3.67;;;3.20;;
2320;SDS011;15376;48.540;9.268;2023-11-19T01:35:41;3.77;;;3.47;;
2320;SDS011;15376;48.540;9.268;2023-11-19T01:38:06;4.93;;;3.33;;
2320;SDS011;15376;48.540;9.268;2023-11-19T01:40:33;3.87;;;3.57;;
2320;SDS011;15376;48.540;9.268;2023-11-19T01:42:59;2.93;;;2.67;;
2320;SDS011;15376;48.540;9.268;2023-11-19T01:45:28;3.27;;;2.97;;
2320;SDS011;15376;48.540;9.268;2023-11-19T01:47:54;2.93;;;2.70;;
2320;SDS011;15376;48.540;9.268;2023-11-19T01:50:21;3.50;;;3.20;;
2320;SDS011;15376;48.540;9.268;2023-11-19T01:52:47;3.83;;;3.00;;
2320;SDS011;15376;48.540;9.268;2023-11-19T01:55:13;3.17;;;2.87;;
2320;SDS011;15376;48.540;9.268;2023-11-19T01:57:39;2.40;;;2.30;;
2320;SDS011;15376;48.540;9.268;2023-11-19T02:00:06;4.10;;;2.77;;
2320;SDS011;15376;48.540;9.268;2023-11-19T02:02:32;2.63;;;2.40;;
2320;SDS011;15376;48.540;9.268;2023-11-19T02:04:57;2.60;;;2.40;;
2320;SDS011;15376;48.540;9.268;2023-11-19T02:07:23;6.00;;;2.57;;
2320;SDS011;15376;48.540;9.268;2023-11-19T02:09:49;2.30;;;2.10;;
2320;SDS011;15376;48.540;9.268;2023-11-19T02:12:14;2.60;;;2.40;;
2320;SDS011;15376;48.540;9.268;2023-11-19T02:14:40;4.27;;;3.57;;
2320;SDS011;15376;48.540;9.268;2023-11-19T02:17:05;2.60;;;2.20;;
2320;SDS011;15376;48.540;9.268;2023-11-19T02:19:30;1.80;;;1.70;;
2320;SDS011;15376;48.540;9.268;2023-11-19T02:21:56;2.13;;;1.93;;
2320;SDS011;15376;48.540;9.268;2023-11-19T02:24:21;1.93;;;1.83;;
2320;SDS011;15376;48.540;9.268;2023-11-19T02:26:59;1.67;;;1.57;;
2320;SDS011;15376;48.540;9.268;2023-11-19T02:29:32;2.30;;;1.50;;
2320;SDS011;15376;48.540;9.268;2023-11-19T02:31:57;1.67;;;1.57;;
2320;SDS011;15376;48.540;9.268;2023-11-19T02:34:23;1.60;;;1.50;;
2320;SDS011;15376;48.540;9.268;2023-11-19T02:36:48;2.80;;;1.70;;
2320;SDS011;15376;48.540;9.268;2023-11-19T02:39:14;1.40;;;1.30;;
2320;SDS011;15376;48.540;9.268;2023-11-19T02:41:45;2.53;;;1.73;;
2320;SDS011;15376;48.540;9.268;2023-11-19T02:44:10;2.23;;;1.50;;
2320;SDS011;15376;48.540;9.268;2023-11-19T02:46:36;1.60;;;1.50;;
2320;SDS011;15376;48.540;9.268;2023-11-19T02:49:02;1.53;;;1.43;;
2320;SDS011;15376;48.540;9.268;2023-11-19T02:51:27;1.97;;;1.63;;
2320;SDS011;15376;48.540;9.268;2023-11-19T02:53:52;1.50;;;1.40;;
2320;SDS011;15376;48.540;9.268;2023-11-19T02:56:18;1.50;;;1.40;;
2320;SDS011;15376;48.540;9.268;2023-11-19T02:58:54;2.07;;;1.53;;
2320;SDS011;15376;48.540;9.268;2023-11-19T03:01:23;1.47;;;1.37;;
2320;SDS011;15376;48.540;9.268;2023-11-19T03:03:54;2.40;;;1.43;;
2320;SDS011;15376;48.540;9.268;2023-11-19T03:06:20;2.37;;;1.67;;
2320;SDS011;15376;48.540;9.268;2023-11-19T03:08:46;1.40;;;1.30;;
2320;SDS011;15376;48.540;9.268;2023-11-19T03:11:13;2.57;;;1.40;;
2320;SDS011;15376;48.540;9.268;2023-11-19T03:13:38;1.30;;;1.20;;
2320;SDS011;15376;48.540;9.268;2023-11-19T03:16:04;1.57;;;1.47;;
2320;SDS011;15376;48.540;9.268;2023-11-19T03:18:29;2.90;;;1.50;;
2320;SDS011;15376;48.540;9.268;2023-11-19T03:20:55;1.50;;;1.40;;
2320;SDS011;15376;48.540;9.268;2023-11-19T03:23:20;1.50;;;1.40;;
2320;SDS011;15376;48.540;9.268;2023-11-19T03:25:46;2.13;;;1.10;;
2320;SDS011;15376;48.540;9.268;2023-11-19T03:28:11;1.50;;;1.40;;
2320;SDS011;15376;48.540;9.268;2023-11-19T03:30:36;1.50;;;1.40;;
2320;SDS011;15376;48.540;9.268;2023-11-19T03:33:02;5.50;;;1.50;;
2320;SDS011;15376;48.540;9.268;2023-11-19T03:35:27;1.20;;;1.10;;
2320;SDS011;15376;48.540;9.268;2023-11-19T03:37:53;1.50;;;1.40;;
2320;SDS011;15376;48.540;9.268;2023-11-19T03:40:19;1.97;;;1.40;;
2320;SDS011;15376;48.540;9.268;2023-11-19T03:42:45;1.40;;;1.20;;
2320;SDS011;15376;48.540;9.268;2023-11-19T03:45:11;1.30;;;1.20;;
2320;SDS011;15376;48.540;9.268;2023-11-19T03:47:37;1.50;;;1.40;;
2320;SDS011;15376;48.540;9.268;2023-11-19T03:50:02;1.63;;;1.30;;
2320;SDS011;15376;48.540;9.268;2023-11-19T03:52:28;1.30;;;1.20;;
2320;SDS011;15376;48.540;9.268;2023-11-19T03:54:57;9.80;;;1.60;;
2320;SDS011;15376;48.540;9.268;2023-11-19T03:57:22;1.63;;;1.53;;
2320;SDS011;15376;48.540;9.268;2023-11-19T03:59:48;1.20;;;1.10;;
2320;SDS011;15376;48.540;9.268;2023-11-19T04:02:13;1.40;;;1.30;;
2320;SDS011;15376;48.540;9.268;2023-11-19T04:04:39;3.83;;;1.40;;
2320;SDS011;15376;48.540;9.268;2023-11-19T04:07:05;2.37;;;1.20;;
2320;SDS011;15376;48.540;9.268;2023-11-19T04:09:30;1.50;;;1.40;;
2320;SDS011;15376;48.540;9.268;2023-11-19T04:11:58;2.57;;;1.47;;
2320;SDS011;15376;48.540;9.268;2023-11-19T04:14:24;1.70;;;1.60;;
2320;SDS011;15376;48.540;9.268;2023-11-19T04:16:49;4.33;;;1.53;;
2320;SDS011;15376;48.540;9.268;2023-11-19T04:19:15;1.40;;;1.30;;
2320;SDS011;15376;48.540;9.268;2023-11-19T04:21:41;1.50;;;1.40;;
2320;SDS011;15376;48.540;9.268;2023-11-19T04:24:07;1.30;;;1.20;;
2320;SDS011;15376;48.540;9.268;2023-11-19T04:26:42;1.53;;;1.40;;
2320;SDS011;15376;48.540;9.268;2023-11-19T04:29:10;1.77;;;1.50;;
2320;SDS011;15376;48.540;9.268;2023-11-19T04:31:36;1.33;;;1.23;;
2320;SDS011;15376;48.540;9.268;2023-11-19T04:34:02;1.30;;;1.20;;
2320;SDS011;15376;48.540;9.268;2023-11-19T04:36:27;2.10;;;1.40;;
2320;SDS011;15376;48.540;9.268;2023-11-19T04:38:54;1.23;;;1.13;;
2320;SDS011;15376;48.540;9.268;2023-11-19T04:41:20;1.20;;;1.10;;
2320;SDS011;15376;48.540;9.268;2023-11-19T04:43:45;1.37;;;1.27;;
2320;SDS011;15376;48.540;9.268;2023-11-19T04:46:10;1.13;;;1.03;;
2320;SDS011;15376;48.540;9.268;2023-11-19T04:48:36;1.17;;;1.07;;
2320;SDS011;15376;48.540;9.268;2023-11-19T04:51:04;1.30;;;1.20;;
2320;SDS011;15376;48.540;9.268;2023-11-19T04:53:30;1.20;;;1.10;;
2320;SDS011;15376;48.540;9.268;2023-11-19T04:55:56;1.10;;;1.00;;
2320;SDS011;15376;48.540;9.268;2023-11-19T04:58:21;1.20;;;1.00;;
2320;SDS011;15376;48.540;9.268;2023-11-19T05:00:46;1.30;;;1.20;;
2320;SDS011;15376;48.540;9.268;2023-11-19T05:03:12;2.03;;;1.20;;
2320;SDS011;15376;48.540;9.268;2023-11-19T05:05:37;1.30;;;1.20;;
2320;SDS011;15376;48.540;9.268;2023-11-19T05:08:02;1.20;;;1.10;;
2320;SDS011;15376;48.540;9.268;2023-11-19T05:10:28;1.27;;;1.17;;
2320;SDS011;15376;48.540;9.268;2023-11-19T05:12:53;1.10;;;0.90;;
2320;SDS011;15376;48.540;9.268;2023-11-19T05:15:21;1.10;;;1.00;;
2320;SDS011;15376;48.540;9.268;2023-11-19T05:17:46;1.10;;;1.00;;
2320;SDS011;15376;48.540;9.268;2023-11-19T05:20:11;1.20;;;1.10;;
2320;SDS011;15376;48.540;9.268;2023-11-19T05:22:40;1.17;;;1.07;;
2320;SDS011;15376;48.540;9.268;2023-11-19T05:25:07;1.90;;;1.30;;
2320;SDS011;15376;48.540;9.268;2023-11-19T05:27:33;1.20;;;1.10;;
2320;SDS011;15376;48.540;9.268;2023-11-19T05:29:59;3.50;;;1.53;;
2320;SDS011;15376;48.540;9.268;2023-11-19T05:32:25;1.33;;;1.23;;
2320;SDS011;15376;48.540;9.268;2023-11-19T05:34:50;1.10;;;1.00;;
2320;SDS011;15376;48.540;9.268;2023-11-19T05:37:16;1.10;;;1.00;;
2320;SDS011;15376;48.540;9.268;2023-11-19T05:39:41;1.00;;;0.90;;
2320;SDS011;15376;48.540;9.268;2023-11-19T05:42:07;1.00;;;0.90;;
2320;SDS011;15376;48.540;9.268;2023-11-19T05:44:32;3.83;;;1.10;;
2320;SDS011;15376;48.540;9.268;2023-11-19T05:46:57;1.20;;;1.07;;
2320;SDS011;15376;48.540;9.268;2023-11-19T05:49:23;0.90;;;0.80;;
2320;SDS011;15376;48.540;9.268;2023-11-19T05:51:48;1.00;;;0.90;;
2320;SDS011;15376;48.540;9.268;2023-11-19T05:54:13;1.00;;;0.90;;
2320;SDS011;15376;48.540;9.268;2023-11-19T05:56:39;1.10;;;1.00;;
2320;SDS011;15376;48.540;9.268;2023-11-19T05:59:04;0.90;;;0.80;;
2320;SDS011;15376;48.540;9.268;2023-11-19T06:01:35;1.10;;;1.00;;
2320;SDS011;15376;48.540;9.268;2023-11-19T06:04:01;1.13;;;1.00;;
2320;SDS011;15376;48.540;9.268;2023-11-19T06:06:27;1.10;;;1.00;;
2320;SDS011;15376;48.540;9.268;2023-11-19T06:08:53;1.30;;;1.20;;
2320;SDS011;15376;48.540;9.268;2023-11-19T06:11:20;0.87;;;0.80;;
2320;SDS011;15376;48.540;9.268;2023-11-19T06:13:45;1.10;;;1.00;;
2320;SDS011;15376;48.540;9.268;2023-11-19T06:16:12;1.47;;;0.90;;
2320;SDS011;15376;48.540;9.268;2023-11-19T06:18:37;0.80;;;0.80;;
2320;SDS011;15376;48.540;9.268;2023-11-19T06:21:02;5.43;;;1.13;;
2320;SDS011;15376;48.540;9.268;2023-11-19T06:23:28;4.93;;;1.00;;
2320;SDS011;15376;48.540;9.268;2023-11-19T06:25:53;1.87;;;1.00;;
2320;SDS011;15376;48.540;9.268;2023-11-19T06:28:19;0.90;;;0.80;;
2320;SDS011;15376;48.540;9.268;2023-11-19T06:30:44;0.80;;;0.70;;
2320;SDS011;15376;48.540;9.268;2023-11-19T06:33:12;0.97;;;0.87;;
2320;SDS011;15376;48.540;9.268;2023-11-19T06:35:38;0.80;;;0.80;;
2320;SDS011;15376;48.540;9.268;2023-11-19T06:38:03;2.47;;;1.03;;
2320;SDS011;15376;48.540;9.268;2023-11-19T06:40:32;2.10;;;0.80;;
2320;SDS011;15376;48.540;9.268;2023-11-19T06:42:57;0.80;;;0.80;;
2320;SDS011;15376;48.540;9.268;2023-11-19T06:45:23;1.10;;;1.00;;
2320;SDS011;15376;48.540;9.268;2023-11-19T06:47:48;1.93;;;0.90;;
2320;SDS011;15376;48.540;9.268;2023-11-19T06:50:14;0.90;;;0.80;;
2320;SDS011;15376;48.540;9.268;2023-11-19T06:52:40;1.20;;;1.10;;
2320;SDS011;15376;48.540;9.268;2023-11-19T06:55:05;2.43;;;0.90;;
2320;SDS011;15376;48.540;9.268;2023-11-19T06:57:31;3.90;;;0.90;;
2320;SDS011;15376;48.540;9.268;2023-11-19T06:59:57;1.00;;;0.90;;
2320;SDS011;15376;48.540;9.268;2023-11-19T07:02:23;1.00;;;0.80;;
2320;SDS011;15376;48.540;9.268;2023-11-19T07:04:49;2.90;;;0.93;;
2320;SDS011;15376;48.540;9.268;2023-11-19T07:07:15;1.03;;;0.90;;
2320;SDS011;15376;48.540;9.268;2023-11-19T07:09:40;1.37;;;0.90;;
2320;SDS011;15376;48.540;9.268;2023-11-19T07:12:06;0.87;;;0.80;;
2320;SDS011;15376;48.540;9.268;2023-11-19T07:14:31;0.80;;;0.77;;
2320;SDS011;15376;48.540;9.268;2023-11-19T07:16:57;1.13;;;1.03;;
2320;SDS011;15376;48.540;9.268;2023-11-19T07:19:22;1.40;;;1.00;;
2320;SDS011;15376;48.540;9.268;2023-11-19T07:21:48;0.80;;;0.80;;
2320;SDS011;15376;48.540;9.268;2023-11-19T07:24:13;2.23;;;1.00;;
2320;SDS011;15376;48.540;9.268;2023-11-19T07:26:45;5.03;;;1.10;;
2320;SDS011;15376;48.540;9.268;2023-11-19T07:29:12;1.00;;;0.90;;
2320;SDS011;15376;48.540;9.268;2023-11-19T07:31:38;0.90;;;0.80;;
2320;SDS011;15376;48.540;9.268;2023-11-19T07:34:03;1.40;;;1.00;;
2320;SDS011;15376;48.540;9.268;2023-11-19T07:36:31;1.00;;;0.90;;
2320;SDS011;15376;48.540;9.268;2023-11-19T07:38:57;0.80;;;0.80;;
2320;SDS011;15376;48.540;9.268;2023-11-19T07:41:23;0.80;;;0.77;;
2320;SDS011;15376;48.540;9.268;2023-11-19T07:43:50;2.13;;;1.00;;
2320;SDS011;15376;48.540;9.268;2023-11-19T07:46:16;1.77;;;1.13;;
2320;SDS011;15376;48.540;9.268;2023-11-19T07:48:44;1.20;;;0.90;;
2320;SDS011;15376;48.540;9.268;2023-11-19T07:51:11;0.87;;;0.80;;
2320;SDS011;15376;48.540;9.268;2023-11-19T07:53:38;1.80;;;0.90;;
2320;SDS011;15376;48.540;9.268;2023-11-19T07:56:03;1.00;;;0.90;;
2320;SDS011;15376;48.540;9.268;2023-11-19T07:58:30;0.80;;;0.80;;
2320;SDS011;15376;48.540;9.268;2023-11-19T08:00:56;1.00;;;0.80;;
2320;SDS011;15376;48.540;9.268;2023-11-19T08:03:21;1.00;;;0.90;;
2320;SDS011;15376;48.540;9.268;2023-11-19T08:05:49;0.87;;;0.87;;
2320;SDS011;15376;48.540;9.268;2023-11-19T08:08:15;0.80;;;0.80;;
2320;SDS011;15376;48.540;9.268;2023-11-19T08:10:41;1.23;;;1.13;;
2320;SDS011;15376;48.540;9.268;2023-11-19T08:13:07;3.70;;;0.90;;
2320;SDS011;15376;48.540;9.268;2023-11-19T08:15:32;1.00;;;0.90;;
2320;SDS011;15376;48.540;9.268;2023-11-19T08:17:58;2.63;;;1.33;;
2320;SDS011;15376;48.540;9.268;2023-11-19T08:20:23;3.00;;;1.63;;
2320;SDS011;15376;48.540;9.268;2023-11-19T08:22:49;1.20;;;1.07;;
2320;SDS011;15376;48.540;9.268;2023-11-19T08:25:14;1.87;;;0.80;;
2320;SDS011;15376;48.540;9.268;2023-11-19T08:27:40;1.10;;;1.00;;
2320;SDS011;15376;48.540;9.268;2023-11-19T08:30:05;1.00;;;0.90;;
2320;SDS011;15376;48.540;9.268;2023-11-19T08:32:31;1.00;;;0.90;;
2320;SDS011;15376;48.540;9.268;2023-11-19T08:34:57;1.47;;;1.10;;
2320;SDS011;15376;48.540;9.268;2023-11-19T08:37:22;1.10;;;0.97;;
2320;SDS011;15376;48.540;9.268;2023-11-19T08:39:48;1.63;;;1.53;;
2320;SDS011;15376;48.540;9.268;2023-11-19T08:42:14;1.00;;;0.90;;
2320;SDS011;15376;48.540;9.268;2023-11-19T08:44:39;6.20;;;1.87;;
2320;SDS011;15376;48.540;9.268;2023-11-19T08:47:08;1.20;;;1.00;;
2320;SDS011;15376;48.540;9.268;2023-11-19T08:49:34;1.07;;;0.97;;
2320;SDS011;15376;48.540;9.268;2023-11-19T08:51:59;1.50;;;1.10;;
2320;SDS011;15376;48.540;9.268;2023-11-19T08:54:25;1.20;;;1.10;;
2320;SDS011;15376;48.540;9.268;2023-11-19T08:56:50;1.20;;;1.10;;
2320;SDS011;15376;48.540;9.268;2023-11-19T08:59:16;1.30;;;0.90;;
2320;SDS011;15376;48.540;9.268;2023-11-19T09:01:41;1.10;;;1.00;;
2320;SDS011;15376;48.540;9.268;2023-11-19T09:04:06;1.00;;;0.90;;
2320;SDS011;15376;48.540;9.268;2023-11-19T09:06:32;1.80;;;1.07;;
2320;SDS011;15376;48.540;9.268;2023-11-19T09:08:58;0.90;;;0.80;;
2320;SDS011;15376;48.540;9.268;2023-11-19T09:11:27;0.90;;;0.80;;
2320;SDS011;15376;48.540;9.268;2023-11-19T09:13:52;1.20;;;1.10;;
2320;SDS011;15376;48.540;9.268;2023-11-19T09:16:18;1.10;;;0.90;;
2320;SDS011;15376;48.540;9.268;2023-11-19T09:18:43;0.97;;;0.87;;
2320;SDS011;15376;48.540;9.268;2023-11-19T09:21:10;1.37;;;1.03;;
2320;SDS011;15376;48.540;9.268;2023-11-19T09:23:36;1.53;;;1.43;;
2320;SDS011;15376;48.540;9.268;2023-11-19T09:26:04;1.40;;;0.97;;
2320;SDS011;15376;48.540;9.268;2023-11-19T09:28:30;1.50;;;1.10;;
2320;SDS011;15376;48.540;9.268;2023-11-19T09:30:55;1.57;;;0.93;;
2320;SDS011;15376;48.540;9.268;2023-11-19T09:33:21;1.00;;;0.90;;
2320;SDS011;15376;48.540;9.268;2023-11-19T09:35:46;0.90;;;0.80;;
2320;SDS011;15376;48.540;9.268;2023-11-19T09:38:14;2.40;;;0.90;;
2320;SDS011;15376;48.540;9.268;2023-11-19T09:40:42;1.00;;;0.90;;
2320;SDS011;15376;48.540;9.268;2023-11-19T09:43:07;1.20;;;1.10;;
2320;SDS011;15376;48.540;9.268;2023-11-19T09:45:47;1.10;;;1.00;;
2320;SDS011;15376;48.540;9.268;2023-11-19T09:48:16;1.00;;;0.80;;
2320;SDS011;15376;48.540;9.268;2023-11-19T09:50:42;2.47;;;1.10;;
2320;SDS011;15376;48.540;9.268;2023-11-19T09:53:08;1.67;;;0.90;;
2320;SDS011;15376;48.540;9.268;2023-11-19T09:55:34;1.00;;;0.90;;
2320;SDS011;15376;48.540;9.268;2023-11-19T09:57:59;1.90;;;1.80;;
2320;SDS011;15376;48.540;9.268;2023-11-19T10:00:26;1.43;;;1.07;;
2320;SDS011;15376;48.540;9.268;2023-11-19T10:02:52;2.67;;;2.50;;
2320;SDS011;15376;48.540;9.268;2023-11-19T10:05:19;1.20;;;1.03;;
2320;SDS011;15376;48.540;9.268;2023-11-19T10:07:47;1.17;;;1.07;;
2320;SDS011;15376;48.540;9.268;2023-11-19T10:10:12;1.17;;;0.97;;
2320;SDS011;15376;48.540;9.268;2023-11-19T10:12:43;1.30;;;1.07;;
2320;SDS011;15376;48.540;9.268;2023-11-19T10:15:08;2.43;;;1.77;;
2320;SDS011;15376;48.540;9.268;2023-11-19T10:17:51;1.10;;;1.00;;
2320;SDS011;15376;48.540;9.268;2023-11-19T10:20:21;1.30;;;1.20;;
2320;SDS011;15376;48.540;9.268;2023-11-19T10:22:47;2.37;;;1.00;;
2320;SDS011;15376;48.540;9.268;2023-11-19T10:25:25;1.00;;;0.90;;
2320;SDS011;15376;48.540;9.268;2023-11-19T10:27:51;1.17;;;1.07;;
2320;SDS011;15376;48.540;9.268;2023-11-19T10:30:21;1.20;;;1.10;;
2320;SDS011;15376;48.540;9.268;2023-11-19T10:35:32;1.33;;;1.20;;
2320;SDS011;15376;48.540;9.268;2023-11-19T10:37:59;1.23;;;1.13;;
2320;SDS011;15376;48.540;9.268;2023-11-19T10:40:38;1.00;;;0.90;;
2320;SDS011;15376;48.540;9.268;2023-11-19T10:43:05;1.10;;;1.00;;
2320;SDS011;15376;48.540;9.268;2023-11-19T10:45:32;1.33;;;1.23;;
2320;SDS011;15376;48.540;9.268;2023-11-19T10:47:58;2.70;;;1.00;;
2320;SDS011;15376;48.540;9.268;2023-11-19T10:50:24;1.23;;;0.93;;
2320;SDS011;15376;48.540;9.268;2023-11-19T10:52:51;1.20;;;1.10;;
2320;SDS011;15376;48.540;9.268;2023-11-19T10:55:25;1.20;;;1.10;;
2320;SDS011;15376;48.540;9.268;2023-11-19T10:57:52;1.20;;;1.10;;
2320;SDS011;15376;48.540;9.268;2023-11-19T11:00:21;1.30;;;1.20;;
2320;SDS011;15376;48.540;9.268;2023-11-19T11:02:49;2.17;;;1.10;;
2320;SDS011;15376;48.540;9.268;2023-11-19T11:05:19;2.93;;;1.00;;
2320;SDS011;15376;48.540;9.268;2023-11-19T11:07:46;1.50;;;1.30;;
2320;SDS011;15376;48.540;9.268;2023-11-19T11:10:14;1.27;;;1.10;;
2320;SDS011;15376;48.540;9.268;2023-11-19T11:12:41;1.87;;;1.13;;
2320;SDS011;15376;48.540;9.268;2023-11-19T11:15:08;2.53;;;1.10;;
2320;SDS011;15376;48.540;9.268;2023-11-19T11:17:40;1.00;;;0.90;;
2320;SDS011;15376;48.540;9.268;2023-11-19T11:20:07;1.10;;;1.00;;
2320;SDS011;15376;48.540;9.268;2023-11-19T11:22:37;1.60;;;1.00;;
2320;SDS011;15376;48.540;9.268;2023-11-19T11:28:16;1.20;;;1.07;;
2320;SDS011;15376;48.540;9.268;2023-11-19T11:34:08;1.10;;;1.00;;
2320;SDS011;15376;48.540;9.268;2023-11-19T11:36:49;1.00;;;0.90;;
2320;SDS011;15376;48.540;9.268;2023-11-19T11:39:18;2.27;;;0.90;;
2320;SDS011;15376;48.540;9.268;2023-11-19T11:41:47;1.77;;;1.00;;
2320;SDS011;15376;48.540;9.268;2023-11-19T11:44:12;2.70;;;0.90;;
2320;SDS011;15376;48.540;9.268;2023-11-19T12:02:10;1.53;;;0.80;;
2320;SDS011;15376;48.540;9.268;2023-11-19T12:04:37;1.63;;;1.20;;
2320;SDS011;15376;48.540;9.268;2023-11-19T12:07:07;1.43;;;1.20;;
2320;SDS011;15376;48.540;9.268;2023-11-19T12:09:37;1.27;;;1.17;;
2320;SDS011;15376;48.540;9.268;2023-11-19T12:12:17;1.10;;;1.00;;
2320;SDS011;15376;48.540;9.268;2023-11-19T12:20:02;1.70;;;1.10;;
2320;SDS011;15376;48.540;9.268;2023-11-19T12:22:30;1.10;;;0.90;;
2320;SDS011;15376;48.540;9.268;2023-11-19T12:24:56;1.60;;;1.50;;
2320;SDS011;15376;48.540;9.268;2023-11-19T12:27:21;1.50;;;1.00;;
2320;SDS011;15376;48.540;9.268;2023-11-19T12:29:47;2.13;;;1.03;;
2320;SDS011;15376;48.540;9.268;2023-11-19T12:32:15;1.00;;;0.90;;
2320;SDS011;15376;48.540;9.268;2023-11-19T12:34:41;0.90;;;0.80;;
2320;SDS011;15376;48.540;9.268;2023-11-19T12:37:07;1.77;;;0.83;;
2320;SDS011;15376;48.540;9.268;2023-11-19T12:39:34;1.73;;;1.10;;
2320;SDS011;15376;48.540;9.268;2023-11-19T12:42:00;1.70;;;1.20;;
2320;SDS011;15376;48.540;9.268;2023-11-19T12:44:26;1.30;;;1.20;;
2320;SDS011;15376;48.540;9.268;2023-11-19T12:47:01;1.37;;;0.80;;
2320;SDS011;15376;48.540;9.268;2023-11-19T12:49:31;0.97;;;0.80;;
2320;SDS011;15376;48.540;9.268;2023-11-19T12:51:57;1.23;;;0.80;;
2320;SDS011;15376;48.540;9.268;2023-11-19T12:54:35;1.00;;;0.90;;
2320;SDS011;15376;48.540;9.268;2023-11-19T12:57:01;0.90;;;0.80;;
2320;SDS011;15376;48.540;9.268;2023-11-19T12:59:27;1.00;;;0.80;;
2320;SDS011;15376;48.540;9.268;2023-11-19T13:01:56;1.30;;;1.10;;
2320;SDS011;15376;48.540;9.268;2023-11-19T13:04:28;1.20;;;0.90;;
2320;SDS011;15376;48.540;9.268;2023-11-19T13:06:55;1.87;;;1.27;;
2320;SDS011;15376;48.540;9.268;2023-11-19T13:09:25;2.23;;;1.27;;
2320;SDS011;15376;48.540;9.268;2023-11-19T13:11:51;1.60;;;0.93;;
2320;SDS011;15376;48.540;9.268;2023-11-19T13:14:17;0.90;;;0.80;;
2320;SDS011;15376;48.540;9.268;2023-11-19T13:16:44;3.60;;;1.20;;
2320;SDS011;15376;48.540;9.268;2023-11-19T13:19:12;1.57;;;1.00;;
2320;SDS011;15376;48.540;9.268;2023-11-19T13:21:39;3.33;;;2.70;;
2320;SDS011;15376;48.540;9.268;2023-11-19T13:24:06;2.17;;;0.90;;
2320;SDS011;15376;48.540;9.268;2023-11-19T13:26:31;1.37;;;0.90;;
2320;SDS011;15376;48.540;9.268;2023-11-19T13:28:57;1.20;;;1.07;;
2320;SDS011;15376;48.540;9.268;2023-11-19T13:31:22;1.10;;;1.00;;
2320;SDS011;15376;48.540;9.268;2023-11-19T13:33:48;2.10;;;1.00;;
2320;SDS011;15376;48.540;9.268;2023-11-19T13:36:13;1.60;;;1.10;;
2320;SDS011;15376;48.540;9.268;2023-11-19T13:38:39;1.20;;;1.00;;
2320;SDS011;15376;48.540;9.268;2023-11-19T13:41:06;1.17;;;1.07;;
2320;SDS011;15376;48.540;9.268;2023-11-19T13:43:31;2.53;;;1.20;;
2320;SDS011;15376;48.540;9.268;2023-11-19T13:45:57;1.63;;;0.80;;
2320;SDS011;15376;48.540;9.268;2023-11-19T13:48:23;1.00;;;0.90;;
2320;SDS011;15376;48.540;9.268;2023-11-19T13:50:49;1.07;;;0.90;;
2320;SDS011;15376;48.540;9.268;2023-11-19T13:53:18;1.20;;;1.10;;
2320;SDS011;15376;48.540;9.268;2023-11-19T13:55:43;1.63;;;1.10;;
2320;SDS011;15376;48.540;9.268;2023-11-19T13:58:09;2.20;;;1.20;;
2320;SDS011;15376;48.540;9.268;2023-11-19T14:00:35;2.17;;;1.20;;
2320;SDS011;15376;48.540;9.268;2023-11-19T14:03:00;1.20;;;0.97;;
2320;SDS011;15376;48.540;9.268;2023-11-19T14:05:26;1.67;;;1.17;;
2320;SDS011;15376;48.540;9.268;2023-11-19T14:07:51;2.10;;;0.90;;
2320;SDS011;15376;48.540;9.268;2023-11-19T14:10:17;1.50;;;0.97;;
2320;SDS011;15376;48.540;9.268;2023-11-19T14:12:42;2.20;;;1.10;;
2320;SDS011;15376;48.540;9.268;2023-11-19T14:15:08;2.47;;;1.10;;
2320;SDS011;15376;48.540;9.268;2023-11-19T14:17:38;1.20;;;0.80;;
2320;SDS011;15376;48.540;9.268;2023-11-19T14:20:04;2.77;;;1.03;;
2320;SDS011;15376;48.540;9.268;2023-11-19T14:22:37;2.60;;;1.40;;
2320;SDS011;15376;48.540;9.268;2023-11-19T14:25:07;1.63;;;0.90;;
2320;SDS011;15376;48.540;9.268;2023-11-19T14:27:34;4.13;;;1.10;;
2320;SDS011;15376;48.540;9.268;2023-11-19T14:30:00;1.23;;;0.97;;
2320;SDS011;15376;48.540;9.268;2023-11-19T14:32:28;2.80;;;1.00;;
2320;SDS011;15376;48.540;9.268;2023-11-19T14:34:54;0.87;;;0.80;;
2320;SDS011;15376;48.540;9.268;2023-11-19T14:37:19;1.77;;;0.90;;
2320;SDS011;15376;48.540;9.268;2023-11-19T14:39:44;2.00;;;1.23;;
2320;SDS011;15376;48.540;9.268;2023-11-19T14:42:11;1.10;;;1.00;;
2320;SDS011;15376;48.540;9.268;2023-11-19T14:44:36;1.97;;;1.10;;
2320;SDS011;15376;48.540;9.268;2023-11-19T14:47:01;1.03;;;0.90;;
2320;SDS011;15376;48.540;9.268;2023-11-19T14:49:27;1.47;;;0.80;;
2320;SDS011;15376;48.540;9.268;2023-11-19T14:51:52;1.30;;;1.00;;
2320;SDS011;15376;48.540;9.268;2023-11-19T14:54:18;1.30;;;1.20;;
2320;SDS011;15376;48.540;9.268;2023-11-19T14:56:43;1.40;;;1.07;;
2320;SDS011;15376;48.540;9.268;2023-11-19T14:59:08;1.97;;;1.10;;
2320;SDS011;15376;48.540;9.268;2023-11-19T15:01:34;1.67;;;1.17;;
2320;SDS011;15376;48.540;9.268;2023-11-19T15:03:59;1.00;;;0.90;;
2320;SDS011;15376;48.540;9.268;2023-11-19T15:06:25;1.17;;;1.07;;
2320;SDS011;15376;48.540;9.268;2023-11-19T15:08:55;1.77;;;1.13;;
2320;SDS011;15376;48.540;9.268;2023-11-19T15:11:21;1.20;;;1.00;;
2320;SDS011;15376;48.540;9.268;2023-11-19T15:13:47;1.20;;;0.83;;
2320;SDS011;15376;48.540;9.268;2023-11-19T15:16:13;1.00;;;0.90;;
2320;SDS011;15376;48.540;9.268;2023-11-19T15:18:39;7.23;;;1.20;;
2320;SDS011;15376;48.540;9.268;2023-11-19T15:21:05;1.00;;;0.90;;
2320;SDS011;15376;48.540;9.268;2023-11-19T15:23:30;1.23;;;1.13;;
2320;SDS011;15376;48.540;9.268;2023-11-19T15:25:55;1.23;;;1.13;;